Wingham, Canada
Current Conditions -  °F | °C
As of 11:41 PM on Thursday 20 Nov 2014 (Local Time) from CYKF Reporting Station
Light Snow Light Snow  
Wind Chill:   Ceiling: 4300
Heat Index: 16°   Visibility: 9mi
Dew Point: 10°   Wind: 12mph
Humidity: 79%   Direction: 250°WSW
Pressure: 29.98"   Gusts: NA
Location:  43.88°N, 81.3°W
Report Text: CYKF 210441Z AUTO 25010KT 9SM -SN FEW029 BKN043 M09/M12 A2998 RMK SLP170
Loading
Personal Weather Stations






























Interactive Weather Map New forecast layout! Learn more

10-Day Weather Forecast

Advertisements
Track Severe Weather on mobile